sensor_id;sensor_type;location;lat;lon;timestamp;P1;durP1;ratioP1;P2;durP2;ratioP2
8104;SDS011;4095;48.942;9.104;2023-06-14T00:01:18;6.57;;;4.73;;
8104;SDS011;4095;48.942;9.104;2023-06-14T00:03:45;7.13;;;4.73;;
8104;SDS011;4095;48.942;9.104;2023-06-14T00:06:12;5.40;;;4.33;;
8104;SDS011;4095;48.942;9.104;2023-06-14T00:08:38;5.00;;;4.13;;
8104;SDS011;4095;48.942;9.104;2023-06-14T00:11:05;5.97;;;4.20;;
8104;SDS011;4095;48.942;9.104;2023-06-14T00:13:30;7.93;;;4.70;;
8104;SDS011;4095;48.942;9.104;2023-06-14T00:15:56;4.77;;;4.23;;
8104;SDS011;4095;48.942;9.104;2023-06-14T00:18:22;5.80;;;4.50;;
8104;SDS011;4095;48.942;9.104;2023-06-14T00:20:49;6.43;;;4.67;;
8104;SDS011;4095;48.942;9.104;2023-06-14T00:23:15;6.00;;;4.13;;
8104;SDS011;4095;48.942;9.104;2023-06-14T00:25:40;6.53;;;4.60;;
8104;SDS011;4095;48.942;9.104;2023-06-14T00:28:06;7.77;;;4.77;;
8104;SDS011;4095;48.942;9.104;2023-06-14T00:30:31;6.37;;;4.60;;
8104;SDS011;4095;48.942;9.104;2023-06-14T00:32:57;6.50;;;4.50;;
8104;SDS011;4095;48.942;9.104;2023-06-14T00:35:23;4.97;;;4.40;;
8104;SDS011;4095;48.942;9.104;2023-06-14T00:37:49;5.40;;;4.50;;
8104;SDS011;4095;48.942;9.104;2023-06-14T00:40:14;6.40;;;4.43;;
8104;SDS011;4095;48.942;9.104;2023-06-14T00:42:40;5.60;;;4.30;;
8104;SDS011;4095;48.942;9.104;2023-06-14T00:45:06;5.70;;;4.63;;
8104;SDS011;4095;48.942;9.104;2023-06-14T00:47:32;5.13;;;4.43;;
8104;SDS011;4095;48.942;9.104;2023-06-14T00:49:57;7.43;;;4.87;;
8104;SDS011;4095;48.942;9.104;2023-06-14T00:52:25;5.30;;;4.57;;
8104;SDS011;4095;48.942;9.104;2023-06-14T00:54:50;6.50;;;4.23;;
8104;SDS011;4095;48.942;9.104;2023-06-14T00:57:16;4.67;;;4.20;;
8104;SDS011;4095;48.942;9.104;2023-06-14T00:59:43;5.73;;;4.60;;
8104;SDS011;4095;48.942;9.104;2023-06-14T01:02:10;6.53;;;4.33;;
8104;SDS011;4095;48.942;9.104;2023-06-14T01:04:37;5.93;;;4.23;;
8104;SDS011;4095;48.942;9.104;2023-06-14T01:07:07;5.23;;;4.50;;
8104;SDS011;4095;48.942;9.104;2023-06-14T01:15:01;5.07;;;4.57;;
8104;SDS011;4095;48.942;9.104;2023-06-14T01:17:28;5.20;;;4.57;;
8104;SDS011;4095;48.942;9.104;2023-06-14T01:19:57;6.67;;;4.97;;
8104;SDS011;4095;48.942;9.104;2023-06-14T01:22:32;7.23;;;4.60;;
8104;SDS011;4095;48.942;9.104;2023-06-14T01:24:58;7.53;;;4.57;;
8104;SDS011;4095;48.942;9.104;2023-06-14T01:27:25;8.67;;;4.73;;
8104;SDS011;4095;48.942;9.104;2023-06-14T01:29:54;5.93;;;4.83;;
8104;SDS011;4095;48.942;9.104;2023-06-14T01:32:24;6.93;;;4.63;;
8104;SDS011;4095;48.942;9.104;2023-06-14T01:34:53;7.63;;;4.33;;
8104;SDS011;4095;48.942;9.104;2023-06-14T01:37:19;4.83;;;4.33;;
8104;SDS011;4095;48.942;9.104;2023-06-14T01:39:45;5.10;;;4.20;;
8104;SDS011;4095;48.942;9.104;2023-06-14T01:42:13;7.97;;;4.40;;
8104;SDS011;4095;48.942;9.104;2023-06-14T01:44:41;4.90;;;4.40;;
8104;SDS011;4095;48.942;9.104;2023-06-14T01:47:07;5.70;;;4.63;;
8104;SDS011;4095;48.942;9.104;2023-06-14T01:49:34;5.43;;;4.37;;
8104;SDS011;4095;48.942;9.104;2023-06-14T01:52:00;5.70;;;4.50;;
8104;SDS011;4095;48.942;9.104;2023-06-14T01:54:26;5.50;;;4.90;;
8104;SDS011;4095;48.942;9.104;2023-06-14T01:56:52;4.93;;;4.43;;
8104;SDS011;4095;48.942;9.104;2023-06-14T01:59:18;5.27;;;4.47;;
8104;SDS011;4095;48.942;9.104;2023-06-14T02:01:43;6.27;;;4.30;;
8104;SDS011;4095;48.942;9.104;2023-06-14T02:04:11;6.37;;;4.60;;
8104;SDS011;4095;48.942;9.104;2023-06-14T02:06:36;5.50;;;4.50;;
8104;SDS011;4095;48.942;9.104;2023-06-14T02:09:02;5.77;;;4.60;;
8104;SDS011;4095;48.942;9.104;2023-06-14T02:11:28;6.03;;;4.60;;
8104;SDS011;4095;48.942;9.104;2023-06-14T02:13:54;5.37;;;4.40;;
8104;SDS011;4095;48.942;9.104;2023-06-14T02:16:20;4.80;;;4.20;;
8104;SDS011;4095;48.942;9.104;2023-06-14T02:18:47;7.00;;;4.10;;
8104;SDS011;4095;48.942;9.104;2023-06-14T02:21:13;6.13;;;4.50;;
8104;SDS011;4095;48.942;9.104;2023-06-14T02:23:39;5.57;;;4.40;;
8104;SDS011;4095;48.942;9.104;2023-06-14T02:26:05;5.13;;;4.27;;
8104;SDS011;4095;48.942;9.104;2023-06-14T02:28:30;5.27;;;4.37;;
8104;SDS011;4095;48.942;9.104;2023-06-14T02:30:56;5.30;;;4.40;;
8104;SDS011;4095;48.942;9.104;2023-06-14T02:33:21;7.23;;;4.70;;
8104;SDS011;4095;48.942;9.104;2023-06-14T02:35:47;6.03;;;4.90;;
8104;SDS011;4095;48.942;9.104;2023-06-14T02:38:13;5.27;;;4.60;;
8104;SDS011;4095;48.942;9.104;2023-06-14T02:40:38;5.57;;;4.67;;
8104;SDS011;4095;48.942;9.104;2023-06-14T02:43:07;6.43;;;4.67;;
8104;SDS011;4095;48.942;9.104;2023-06-14T02:45:32;4.73;;;4.33;;
8104;SDS011;4095;48.942;9.104;2023-06-14T02:47:58;5.93;;;4.70;;
8104;SDS011;4095;48.942;9.104;2023-06-14T02:50:24;8.37;;;5.03;;
8104;SDS011;4095;48.942;9.104;2023-06-14T02:52:50;5.13;;;4.63;;
8104;SDS011;4095;48.942;9.104;2023-06-14T02:55:17;5.67;;;4.47;;
8104;SDS011;4095;48.942;9.104;2023-06-14T02:57:43;5.57;;;4.80;;
8104;SDS011;4095;48.942;9.104;2023-06-14T03:00:08;6.07;;;4.87;;
8104;SDS011;4095;48.942;9.104;2023-06-14T03:02:35;5.13;;;4.63;;
8104;SDS011;4095;48.942;9.104;2023-06-14T03:05:01;6.33;;;4.70;;
8104;SDS011;4095;48.942;9.104;2023-06-14T03:07:28;5.73;;;4.73;;
8104;SDS011;4095;48.942;9.104;2023-06-14T03:09:54;5.60;;;4.47;;
8104;SDS011;4095;48.942;9.104;2023-06-14T03:12:20;4.93;;;4.53;;
8104;SDS011;4095;48.942;9.104;2023-06-14T03:14:46;7.10;;;4.63;;
8104;SDS011;4095;48.942;9.104;2023-06-14T03:17:12;5.27;;;4.70;;
8104;SDS011;4095;48.942;9.104;2023-06-14T03:19:37;6.73;;;4.70;;
8104;SDS011;4095;48.942;9.104;2023-06-14T03:22:03;5.27;;;4.77;;
8104;SDS011;4095;48.942;9.104;2023-06-14T03:24:29;4.70;;;4.30;;
8104;SDS011;4095;48.942;9.104;2023-06-14T03:26:57;6.37;;;5.37;;
8104;SDS011;4095;48.942;9.104;2023-06-14T03:29:22;5.53;;;4.57;;
8104;SDS011;4095;48.942;9.104;2023-06-14T03:31:58;6.40;;;5.00;;
8104;SDS011;4095;48.942;9.104;2023-06-14T03:34:24;6.67;;;4.97;;
8104;SDS011;4095;48.942;9.104;2023-06-14T03:36:50;7.03;;;4.73;;
8104;SDS011;4095;48.942;9.104;2023-06-14T03:39:16;6.03;;;4.80;;
8104;SDS011;4095;48.942;9.104;2023-06-14T03:41:42;5.73;;;4.87;;
8104;SDS011;4095;48.942;9.104;2023-06-14T03:44:07;5.43;;;4.70;;
8104;SDS011;4095;48.942;9.104;2023-06-14T03:46:33;5.27;;;4.50;;
8104;SDS011;4095;48.942;9.104;2023-06-14T03:48:58;5.70;;;5.10;;
8104;SDS011;4095;48.942;9.104;2023-06-14T03:51:25;6.00;;;4.93;;
8104;SDS011;4095;48.942;9.104;2023-06-14T03:53:51;5.80;;;4.87;;
8104;SDS011;4095;48.942;9.104;2023-06-14T03:56:16;6.50;;;5.17;;
8104;SDS011;4095;48.942;9.104;2023-06-14T03:58:42;6.07;;;4.97;;
8104;SDS011;4095;48.942;9.104;2023-06-14T04:01:07;7.53;;;5.20;;
8104;SDS011;4095;48.942;9.104;2023-06-14T04:03:33;8.77;;;5.23;;
8104;SDS011;4095;48.942;9.104;2023-06-14T04:05:59;5.17;;;4.67;;
8104;SDS011;4095;48.942;9.104;2023-06-14T04:08:25;5.60;;;5.00;;
8104;SDS011;4095;48.942;9.104;2023-06-14T04:10:50;6.47;;;4.70;;
8104;SDS011;4095;48.942;9.104;2023-06-14T04:13:16;6.73;;;4.77;;
8104;SDS011;4095;48.942;9.104;2023-06-14T04:15:42;8.63;;;5.50;;
8104;SDS011;4095;48.942;9.104;2023-06-14T04:18:10;6.57;;;4.80;;
8104;SDS011;4095;48.942;9.104;2023-06-14T04:20:36;5.27;;;4.77;;
8104;SDS011;4095;48.942;9.104;2023-06-14T04:23:11;5.20;;;4.57;;
8104;SDS011;4095;48.942;9.104;2023-06-14T04:25:37;6.87;;;4.90;;
8104;SDS011;4095;48.942;9.104;2023-06-14T04:28:03;6.60;;;4.63;;
8104;SDS011;4095;48.942;9.104;2023-06-14T04:30:29;6.50;;;5.30;;
8104;SDS011;4095;48.942;9.104;2023-06-14T04:32:56;6.23;;;5.43;;
8104;SDS011;4095;48.942;9.104;2023-06-14T04:35:22;6.10;;;5.00;;
8104;SDS011;4095;48.942;9.104;2023-06-14T04:37:52;6.93;;;5.00;;
8104;SDS011;4095;48.942;9.104;2023-06-14T04:40:18;5.83;;;4.80;;
8104;SDS011;4095;48.942;9.104;2023-06-14T04:42:44;7.27;;;5.10;;
8104;SDS011;4095;48.942;9.104;2023-06-14T04:45:11;7.93;;;4.73;;
8104;SDS011;4095;48.942;9.104;2023-06-14T04:47:37;5.60;;;5.10;;
8104;SDS011;4095;48.942;9.104;2023-06-14T04:50:03;6.53;;;5.07;;
8104;SDS011;4095;48.942;9.104;2023-06-14T04:52:29;7.60;;;5.03;;
8104;SDS011;4095;48.942;9.104;2023-06-14T04:54:56;7.57;;;4.97;;
8104;SDS011;4095;48.942;9.104;2023-06-14T04:57:22;5.60;;;5.00;;
8104;SDS011;4095;48.942;9.104;2023-06-14T04:59:50;7.43;;;4.73;;
8104;SDS011;4095;48.942;9.104;2023-06-14T05:02:20;5.90;;;5.13;;
8104;SDS011;4095;48.942;9.104;2023-06-14T05:04:46;6.87;;;4.87;;
8104;SDS011;4095;48.942;9.104;2023-06-14T05:07:12;8.53;;;5.17;;
8104;SDS011;4095;48.942;9.104;2023-06-14T05:09:39;5.77;;;4.60;;
8104;SDS011;4095;48.942;9.104;2023-06-14T05:12:04;7.17;;;5.43;;
8104;SDS011;4095;48.942;9.104;2023-06-14T05:14:32;5.70;;;5.07;;
8104;SDS011;4095;48.942;9.104;2023-06-14T05:16:58;7.07;;;5.30;;
8104;SDS011;4095;48.942;9.104;2023-06-14T05:19:24;7.27;;;5.20;;
8104;SDS011;4095;48.942;9.104;2023-06-14T05:21:50;6.97;;;5.63;;
8104;SDS011;4095;48.942;9.104;2023-06-14T05:24:16;7.70;;;6.00;;
8104;SDS011;4095;48.942;9.104;2023-06-14T05:26:44;5.90;;;5.30;;
8104;SDS011;4095;48.942;9.104;2023-06-14T05:29:11;7.73;;;5.17;;
8104;SDS011;4095;48.942;9.104;2023-06-14T05:31:36;6.63;;;5.77;;
8104;SDS011;4095;48.942;9.104;2023-06-14T05:34:02;6.27;;;5.53;;
8104;SDS011;4095;48.942;9.104;2023-06-14T05:36:28;6.60;;;5.90;;
8104;SDS011;4095;48.942;9.104;2023-06-14T05:38:54;7.03;;;5.87;;
8104;SDS011;4095;48.942;9.104;2023-06-14T05:41:28;6.30;;;5.57;;
8104;SDS011;4095;48.942;9.104;2023-06-14T05:43:55;8.10;;;5.93;;
8104;SDS011;4095;48.942;9.104;2023-06-14T05:46:21;7.47;;;6.27;;
8104;SDS011;4095;48.942;9.104;2023-06-14T05:48:49;7.27;;;6.07;;
8104;SDS011;4095;48.942;9.104;2023-06-14T05:51:15;7.50;;;5.53;;
8104;SDS011;4095;48.942;9.104;2023-06-14T05:53:44;7.67;;;5.33;;
8104;SDS011;4095;48.942;9.104;2023-06-14T05:56:16;11.33;;;5.17;;
8104;SDS011;4095;48.942;9.104;2023-06-14T05:58:42;7.50;;;5.23;;
8104;SDS011;4095;48.942;9.104;2023-06-14T06:01:08;6.80;;;5.07;;
8104;SDS011;4095;48.942;9.104;2023-06-14T06:03:34;6.13;;;4.90;;
8104;SDS011;4095;48.942;9.104;2023-06-14T06:06:00;5.77;;;4.67;;
8104;SDS011;4095;48.942;9.104;2023-06-14T06:08:26;7.93;;;4.53;;
8104;SDS011;4095;48.942;9.104;2023-06-14T06:10:52;9.47;;;4.90;;
8104;SDS011;4095;48.942;9.104;2023-06-14T06:13:17;10.07;;;4.97;;
8104;SDS011;4095;48.942;9.104;2023-06-14T06:15:43;5.93;;;4.93;;
8104;SDS011;4095;48.942;9.104;2023-06-14T06:18:09;7.90;;;4.50;;
8104;SDS011;4095;48.942;9.104;2023-06-14T06:20:34;6.73;;;4.70;;
8104;SDS011;4095;48.942;9.104;2023-06-14T06:23:01;6.00;;;4.47;;
8104;SDS011;4095;48.942;9.104;2023-06-14T06:25:27;10.00;;;5.03;;
8104;SDS011;4095;48.942;9.104;2023-06-14T06:27:55;7.00;;;4.87;;
8104;SDS011;4095;48.942;9.104;2023-06-14T06:30:21;9.10;;;4.40;;
8104;SDS011;4095;48.942;9.104;2023-06-14T06:32:47;8.73;;;4.50;;
8104;SDS011;4095;48.942;9.104;2023-06-14T06:35:12;4.90;;;4.40;;
8104;SDS011;4095;48.942;9.104;2023-06-14T06:37:39;6.10;;;4.50;;
8104;SDS011;4095;48.942;9.104;2023-06-14T06:40:05;6.63;;;4.77;;
8104;SDS011;4095;48.942;9.104;2023-06-14T06:42:34;6.40;;;4.50;;
8104;SDS011;4095;48.942;9.104;2023-06-14T06:45:00;6.80;;;4.43;;
8104;SDS011;4095;48.942;9.104;2023-06-14T06:47:26;7.07;;;4.70;;
8104;SDS011;4095;48.942;9.104;2023-06-14T06:49:51;5.60;;;4.47;;
8104;SDS011;4095;48.942;9.104;2023-06-14T06:52:17;6.60;;;4.30;;
8104;SDS011;4095;48.942;9.104;2023-06-14T06:54:43;8.67;;;4.67;;
8104;SDS011;4095;48.942;9.104;2023-06-14T06:57:08;5.40;;;4.40;;
8104;SDS011;4095;48.942;9.104;2023-06-14T06:59:35;5.50;;;3.93;;
8104;SDS011;4095;48.942;9.104;2023-06-14T07:02:01;7.73;;;4.50;;
8104;SDS011;4095;48.942;9.104;2023-06-14T07:04:27;4.57;;;4.17;;
8104;SDS011;4095;48.942;9.104;2023-06-14T07:06:53;9.37;;;4.23;;
8104;SDS011;4095;48.942;9.104;2023-06-14T07:09:18;5.43;;;4.07;;
8104;SDS011;4095;48.942;9.104;2023-06-14T07:11:44;7.10;;;4.23;;
8104;SDS011;4095;48.942;9.104;2023-06-14T07:14:10;5.03;;;4.20;;
8104;SDS011;4095;48.942;9.104;2023-06-14T07:16:36;5.97;;;4.40;;
8104;SDS011;4095;48.942;9.104;2023-06-14T07:19:02;4.93;;;3.60;;
8104;SDS011;4095;48.942;9.104;2023-06-14T07:21:28;8.40;;;4.23;;
8104;SDS011;4095;48.942;9.104;2023-06-14T07:23:55;7.03;;;5.90;;
8104;SDS011;4095;48.942;9.104;2023-06-14T07:26:21;8.17;;;4.27;;
8104;SDS011;4095;48.942;9.104;2023-06-14T07:28:47;5.57;;;4.27;;
8104;SDS011;4095;48.942;9.104;2023-06-14T07:31:13;5.70;;;4.20;;
8104;SDS011;4095;48.942;9.104;2023-06-14T07:33:40;5.87;;;3.90;;
8104;SDS011;4095;48.942;9.104;2023-06-14T07:36:06;4.83;;;4.30;;
8104;SDS011;4095;48.942;9.104;2023-06-14T07:38:32;4.93;;;3.67;;
8104;SDS011;4095;48.942;9.104;2023-06-14T07:40:57;6.00;;;3.87;;
8104;SDS011;4095;48.942;9.104;2023-06-14T07:43:24;6.43;;;4.10;;
8104;SDS011;4095;48.942;9.104;2023-06-14T07:45:49;6.23;;;4.10;;
8104;SDS011;4095;48.942;9.104;2023-06-14T07:48:15;4.33;;;3.93;;
8104;SDS011;4095;48.942;9.104;2023-06-14T07:50:41;4.30;;;3.90;;
8104;SDS011;4095;48.942;9.104;2023-06-14T07:53:07;5.22;;;4.13;;
8104;SDS011;4095;48.942;9.104;2023-06-14T07:55:33;4.93;;;4.20;;
8104;SDS011;4095;48.942;9.104;2023-06-14T07:58:01;4.47;;;3.70;;
8104;SDS011;4095;48.942;9.104;2023-06-14T08:00:27;6.57;;;3.95;;
8104;SDS011;4095;48.942;9.104;2023-06-14T08:02:53;5.72;;;3.55;;
8104;SDS011;4095;48.942;9.104;2023-06-14T08:05:23;5.28;;;4.20;;
8104;SDS011;4095;48.942;9.104;2023-06-14T08:07:50;6.07;;;3.83;;
8104;SDS011;4095;48.942;9.104;2023-06-14T08:10:15;4.40;;;3.78;;
8104;SDS011;4095;48.942;9.104;2023-06-14T08:12:41;7.25;;;4.07;;
8104;SDS011;4095;48.942;9.104;2023-06-14T08:15:07;4.22;;;3.72;;
8104;SDS011;4095;48.942;9.104;2023-06-14T08:17:32;5.55;;;4.05;;
8104;SDS011;4095;48.942;9.104;2023-06-14T08:19:58;7.07;;;3.80;;
8104;SDS011;4095;48.942;9.104;2023-06-14T08:22:24;8.25;;;4.35;;
8104;SDS011;4095;48.942;9.104;2023-06-14T08:24:50;5.90;;;3.78;;
8104;SDS011;4095;48.942;9.104;2023-06-14T08:27:18;5.75;;;3.65;;
8104;SDS011;4095;48.942;9.104;2023-06-14T08:29:44;5.07;;;4.18;;
8104;SDS011;4095;48.942;9.104;2023-06-14T08:32:10;6.63;;;4.05;;
8104;SDS011;4095;48.942;9.104;2023-06-14T08:34:36;4.32;;;3.65;;
8104;SDS011;4095;48.942;9.104;2023-06-14T08:37:01;4.80;;;4.13;;
8104;SDS011;4095;48.942;9.104;2023-06-14T08:39:27;4.55;;;3.83;;
8104;SDS011;4095;48.942;9.104;2023-06-14T08:41:53;6.07;;;3.72;;
8104;SDS011;4095;48.942;9.104;2023-06-14T08:44:21;5.03;;;3.50;;
8104;SDS011;4095;48.942;9.104;2023-06-14T08:46:47;5.47;;;3.88;;
8104;SDS011;4095;48.942;9.104;2023-06-14T08:49:13;4.88;;;3.60;;
8104;SDS011;4095;48.942;9.104;2023-06-14T08:51:42;7.72;;;3.78;;
8104;SDS011;4095;48.942;9.104;2023-06-14T08:54:08;4.60;;;3.80;;
8104;SDS011;4095;48.942;9.104;2023-06-14T08:56:36;4.53;;;3.60;;
8104;SDS011;4095;48.942;9.104;2023-06-14T08:59:03;5.75;;;3.97;;
8104;SDS011;4095;48.942;9.104;2023-06-14T09:01:33;4.68;;;3.70;;
8104;SDS011;4095;48.942;9.104;2023-06-14T09:03:59;7.25;;;3.65;;
8104;SDS011;4095;48.942;9.104;2023-06-14T09:06:25;4.68;;;3.35;;
8104;SDS011;4095;48.942;9.104;2023-06-14T09:08:53;7.88;;;3.88;;
8104;SDS011;4095;48.942;9.104;2023-06-14T09:11:20;5.13;;;3.25;;
8104;SDS011;4095;48.942;9.104;2023-06-14T09:13:46;4.75;;;3.72;;
8104;SDS011;4095;48.942;9.104;2023-06-14T09:16:13;4.88;;;3.80;;
8104;SDS011;4095;48.942;9.104;2023-06-14T09:18:40;4.57;;;3.90;;
8104;SDS011;4095;48.942;9.104;2023-06-14T09:21:10;6.55;;;3.60;;
8104;SDS011;4095;48.942;9.104;2023-06-14T09:23:37;6.18;;;3.60;;
8104;SDS011;4095;48.942;9.104;2023-06-14T09:26:11;4.15;;;3.70;;
8104;SDS011;4095;48.942;9.104;2023-06-14T09:28:45;6.05;;;3.15;;
8104;SDS011;4095;48.942;9.104;2023-06-14T09:31:12;4.25;;;3.75;;
8104;SDS011;4095;48.942;9.104;2023-06-14T09:33:42;5.50;;;3.85;;
8104;SDS011;4095;48.942;9.104;2023-06-14T09:36:12;3.63;;;3.33;;
8104;SDS011;4095;48.942;9.104;2023-06-14T09:38:41;8.02;;;4.10;;
8104;SDS011;4095;48.942;9.104;2023-06-14T09:41:16;5.85;;;4.00;;
8104;SDS011;4095;48.942;9.104;2023-06-14T09:43:41;8.13;;;3.97;;
8104;SDS011;4095;48.942;9.104;2023-06-14T09:46:08;6.05;;;3.78;;
8104;SDS011;4095;48.942;9.104;2023-06-14T09:48:34;6.90;;;3.75;;
8104;SDS011;4095;48.942;9.104;2023-06-14T09:51:00;4.80;;;3.30;;
8104;SDS011;4095;48.942;9.104;2023-06-14T09:53:27;3.70;;;3.40;;
8104;SDS011;4095;48.942;9.104;2023-06-14T09:55:55;6.57;;;3.53;;
8104;SDS011;4095;48.942;9.104;2023-06-14T09:58:23;4.38;;;3.47;;
8104;SDS011;4095;48.942;9.104;2023-06-14T10:00:53;5.68;;;3.20;;
8104;SDS011;4095;48.942;9.104;2023-06-14T10:03:25;3.88;;;3.30;;
8104;SDS011;4095;48.942;9.104;2023-06-14T10:05:53;5.93;;;3.28;;
8104;SDS011;4095;48.942;9.104;2023-06-14T10:08:26;6.88;;;3.47;;
8104;SDS011;4095;48.942;9.104;2023-06-14T10:10:56;5.88;;;3.03;;
8104;SDS011;4095;48.942;9.104;2023-06-14T10:13:22;4.22;;;3.10;;
8104;SDS011;4095;48.942;9.104;2023-06-14T10:16:12;6.53;;;3.20;;
8104;SDS011;4095;48.942;9.104;2023-06-14T10:21:43;5.90;;;3.28;;
8104;SDS011;4095;48.942;9.104;2023-06-14T10:24:22;5.97;;;3.53;;
8104;SDS011;4095;48.942;9.104;2023-06-14T10:26:54;4.82;;;3.20;;
8104;SDS011;4095;48.942;9.104;2023-06-14T10:29:23;5.15;;;3.10;;
8104;SDS011;4095;48.942;9.104;2023-06-14T10:31:50;11.48;;;4.35;;
8104;SDS011;4095;48.942;9.104;2023-06-14T10:34:24;5.80;;;3.38;;
8104;SDS011;4095;48.942;9.104;2023-06-14T10:37:04;8.50;;;3.72;;
8104;SDS011;4095;48.942;9.104;2023-06-14T10:39:32;7.50;;;3.15;;
8104;SDS011;4095;48.942;9.104;2023-06-14T10:42:03;5.57;;;2.85;;
8104;SDS011;4095;48.942;9.104;2023-06-14T10:47:00;5.15;;;3.20;;
8104;SDS011;4095;48.942;9.104;2023-06-14T10:49:39;4.05;;;3.30;;
8104;SDS011;4095;48.942;9.104;2023-06-14T10:52:09;3.90;;;3.13;;
8104;SDS011;4095;48.942;9.104;2023-06-14T10:54:59;6.25;;;3.13;;
8104;SDS011;4095;48.942;9.104;2023-06-14T10:57:34;5.25;;;3.20;;
8104;SDS011;4095;48.942;9.104;2023-06-14T11:00:01;4.13;;;2.90;;
8104;SDS011;4095;48.942;9.104;2023-06-14T11:05:41;6.78;;;3.20;;
8104;SDS011;4095;48.942;9.104;2023-06-14T11:08:31;6.95;;;3.63;;
8104;SDS011;4095;48.942;9.104;2023-06-14T11:11:08;5.65;;;3.20;;
8104;SDS011;4095;48.942;9.104;2023-06-14T11:13:44;7.38;;;3.15;;
8104;SDS011;4095;48.942;9.104;2023-06-14T11:16:11;5.88;;;3.65;;
8104;SDS011;4095;48.942;9.104;2023-06-14T11:18:37;5.13;;;3.10;;
8104;SDS011;4095;48.942;9.104;2023-06-14T11:21:03;6.50;;;3.42;;
8104;SDS011;4095;48.942;9.104;2023-06-14T11:23:29;4.22;;;3.22;;
8104;SDS011;4095;48.942;9.104;2023-06-14T11:25:54;5.03;;;3.00;;
8104;SDS011;4095;48.942;9.104;2023-06-14T11:28:20;5.43;;;3.08;;
8104;SDS011;4095;48.942;9.104;2023-06-14T11:30:47;3.90;;;3.20;;
8104;SDS011;4095;48.942;9.104;2023-06-14T11:33:16;3.20;;;2.88;;
8104;SDS011;4095;48.942;9.104;2023-06-14T11:35:45;4.20;;;3.33;;
8104;SDS011;4095;48.942;9.104;2023-06-14T11:38:11;5.22;;;3.33;;
8104;SDS011;4095;48.942;9.104;2023-06-14T11:40:37;3.08;;;2.72;;
8104;SDS011;4095;48.942;9.104;2023-06-14T11:43:03;6.35;;;3.05;;
8104;SDS011;4095;48.942;9.104;2023-06-14T11:45:30;3.58;;;2.90;;
8104;SDS011;4095;48.942;9.104;2023-06-14T11:47:56;4.95;;;2.85;;
8104;SDS011;4095;48.942;9.104;2023-06-14T11:50:23;3.65;;;3.05;;
8104;SDS011;4095;48.942;9.104;2023-06-14T11:52:53;5.75;;;3.03;;
8104;SDS011;4095;48.942;9.104;2023-06-14T11:55:22;3.65;;;3.03;;
8104;SDS011;4095;48.942;9.104;2023-06-14T11:57:49;3.92;;;2.83;;
8104;SDS011;4095;48.942;9.104;2023-06-14T12:00:15;5.60;;;3.15;;
8104;SDS011;4095;48.942;9.104;2023-06-14T12:02:42;5.57;;;3.08;;
8104;SDS011;4095;48.942;9.104;2023-06-14T12:05:08;4.75;;;3.28;;
8104;SDS011;4095;48.942;9.104;2023-06-14T12:07:36;5.47;;;2.90;;
8104;SDS011;4095;48.942;9.104;2023-06-14T12:12:34;4.63;;;3.22;;
8104;SDS011;4095;48.942;9.104;2023-06-14T12:15:02;4.15;;;2.90;;
8104;SDS011;4095;48.942;9.104;2023-06-14T12:17:35;3.90;;;3.25;;
8104;SDS011;4095;48.942;9.104;2023-06-14T12:20:06;3.58;;;2.90;;
8104;SDS011;4095;48.942;9.104;2023-06-14T12:22:36;4.35;;;2.85;;
8104;SDS011;4095;48.942;9.104;2023-06-14T12:25:03;4.10;;;3.10;;
8104;SDS011;4095;48.942;9.104;2023-06-14T12:27:29;3.90;;;2.78;;
8104;SDS011;4095;48.942;9.104;2023-06-14T12:29:59;4.95;;;2.95;;
8104;SDS011;4095;48.942;9.104;2023-06-14T12:32:26;2.95;;;2.70;;
8104;SDS011;4095;48.942;9.104;2023-06-14T12:34:52;4.82;;;2.85;;
8104;SDS011;4095;48.942;9.104;2023-06-14T12:37:17;4.45;;;2.85;;
8104;SDS011;4095;48.942;9.104;2023-06-14T12:39:43;4.85;;;3.13;;
8104;SDS011;4095;48.942;9.104;2023-06-14T12:42:09;3.80;;;2.72;;
8104;SDS011;4095;48.942;9.104;2023-06-14T12:44:34;3.83;;;2.80;;
8104;SDS011;4095;48.942;9.104;2023-06-14T12:47:05;5.40;;;3.20;;
8104;SDS011;4095;48.942;9.104;2023-06-14T12:49:31;5.07;;;2.72;;
8104;SDS011;4095;48.942;9.104;2023-06-14T12:51:57;5.05;;;2.80;;
8104;SDS011;4095;48.942;9.104;2023-06-14T12:54:22;8.80;;;3.20;;
8104;SDS011;4095;48.942;9.104;2023-06-14T12:56:50;6.03;;;2.90;;
8104;SDS011;4095;48.942;9.104;2023-06-14T12:59:16;3.75;;;3.00;;
8104;SDS011;4095;48.942;9.104;2023-06-14T13:01:43;4.40;;;3.20;;
8104;SDS011;4095;48.942;9.104;2023-06-14T13:04:09;5.47;;;3.05;;
8104;SDS011;4095;48.942;9.104;2023-06-14T13:06:35;4.43;;;3.22;;
8104;SDS011;4095;48.942;9.104;2023-06-14T13:09:01;4.35;;;3.25;;
8104;SDS011;4095;48.942;9.104;2023-06-14T13:11:28;5.38;;;2.72;;
8104;SDS011;4095;48.942;9.104;2023-06-14T13:13:54;3.72;;;2.88;;
8104;SDS011;4095;48.942;9.104;2023-06-14T13:16:20;5.63;;;3.00;;
8104;SDS011;4095;48.942;9.104;2023-06-14T13:18:45;3.28;;;2.78;;
8104;SDS011;4095;48.942;9.104;2023-06-14T13:21:11;5.43;;;3.03;;
8104;SDS011;4095;48.942;9.104;2023-06-14T13:23:37;3.72;;;2.95;;
8104;SDS011;4095;48.942;9.104;2023-06-14T13:26:02;5.57;;;3.30;;
8104;SDS011;4095;48.942;9.104;2023-06-14T13:28:28;3.20;;;2.88;;
8104;SDS011;4095;48.942;9.104;2023-06-14T13:30:53;4.75;;;3.20;;
8104;SDS011;4095;48.942;9.104;2023-06-14T13:33:20;3.75;;;2.97;;
8104;SDS011;4095;48.942;9.104;2023-06-14T13:35:46;6.07;;;3.00;;
8104;SDS011;4095;48.942;9.104;2023-06-14T13:38:13;4.40;;;3.03;;
8104;SDS011;4095;48.942;9.104;2023-06-14T13:40:40;6.13;;;3.10;;
8104;SDS011;4095;48.942;9.104;2023-06-14T13:43:06;4.90;;;2.78;;
8104;SDS011;4095;48.942;9.104;2023-06-14T13:45:31;3.25;;;2.70;;
8104;SDS011;4095;48.942;9.104;2023-06-14T13:47:57;4.43;;;3.10;;
8104;SDS011;4095;48.942;9.104;2023-06-14T13:50:23;5.13;;;2.88;;
8104;SDS011;4095;48.942;9.104;2023-06-14T13:52:48;4.55;;;3.30;;
8104;SDS011;4095;48.942;9.104;2023-06-14T13:55:14;4.63;;;2.90;;
8104;SDS011;4095;48.942;9.104;2023-06-14T13:57:39;4.32;;;2.88;;
8104;SDS011;4095;48.942;9.104;2023-06-14T14:00:06;5.57;;;3.00;;
8104;SDS011;4095;48.942;9.104;2023-06-14T14:02:33;3.10;;;2.60;;
8104;SDS011;4095;48.942;9.104;2023-06-14T14:04:59;3.47;;;3.00;;
8104;SDS011;4095;48.942;9.104;2023-06-14T14:07:25;3.50;;;3.20;;
8104;SDS011;4095;48.942;9.104;2023-06-14T14:09:51;4.78;;;3.10;;
8104;SDS011;4095;48.942;9.104;2023-06-14T14:12:18;4.35;;;3.15;;
8104;SDS011;4095;48.942;9.104;2023-06-14T14:14:44;4.70;;;3.08;;
8104;SDS011;4095;48.942;9.104;2023-06-14T14:17:09;4.10;;;2.83;;
8104;SDS011;4095;48.942;9.104;2023-06-14T14:19:35;3.58;;;3.08;;
8104;SDS011;4095;48.942;9.104;2023-06-14T14:22:01;6.50;;;3.28;;
8104;SDS011;4095;48.942;9.104;2023-06-14T14:24:27;5.30;;;3.70;;
8104;SDS011;4095;48.942;9.104;2023-06-14T14:26:52;3.72;;;3.13;;
8104;SDS011;4095;48.942;9.104;2023-06-14T14:29:18;3.42;;;3.13;;
8104;SDS011;4095;48.942;9.104;2023-06-14T14:31:44;5.15;;;3.15;;
8104;SDS011;4095;48.942;9.104;2023-06-14T14:34:10;3.55;;;3.25;;
8104;SDS011;4095;48.942;9.104;2023-06-14T14:36:36;4.88;;;3.40;;
8104;SDS011;4095;48.942;9.104;2023-06-14T14:39:03;3.53;;;3.13;;
8104;SDS011;4095;48.942;9.104;2023-06-14T14:41:29;3.80;;;3.40;;
8104;SDS011;4095;48.942;9.104;2023-06-14T14:43:55;4.03;;;2.92;;
8104;SDS011;4095;48.942;9.104;2023-06-14T14:46:20;5.85;;;3.15;;
8104;SDS011;4095;48.942;9.104;2023-06-14T14:48:46;4.22;;;3.03;;
8104;SDS011;4095;48.942;9.104;2023-06-14T14:51:12;4.97;;;3.13;;
8104;SDS011;4095;48.942;9.104;2023-06-14T14:53:37;4.45;;;3.20;;
8104;SDS011;4095;48.942;9.104;2023-06-14T14:56:03;5.70;;;3.03;;
8104;SDS011;4095;48.942;9.104;2023-06-14T14:58:28;5.25;;;3.20;;
8104;SDS011;4095;48.942;9.104;2023-06-14T15:00:54;4.28;;;3.00;;
8104;SDS011;4095;48.942;9.104;2023-06-14T15:03:20;6.25;;;3.47;;
8104;SDS011;4095;48.942;9.104;2023-06-14T15:05:46;3.55;;;2.80;;
8104;SDS011;4095;48.942;9.104;2023-06-14T15:08:12;7.18;;;3.25;;
8104;SDS011;4095;48.942;9.104;2023-06-14T15:10:38;3.00;;;2.72;;
8104;SDS011;4095;48.942;9.104;2023-06-14T15:13:06;5.35;;;3.50;;
8104;SDS011;4095;48.942;9.104;2023-06-14T15:15:35;6.72;;;2.72;;
8104;SDS011;4095;48.942;9.104;2023-06-14T15:18:01;4.05;;;3.42;;
8104;SDS011;4095;48.942;9.104;2023-06-14T15:20:27;4.82;;;3.10;;
8104;SDS011;4095;48.942;9.104;2023-06-14T15:22:53;4.35;;;3.00;;
8104;SDS011;4095;48.942;9.104;2023-06-14T15:25:24;5.45;;;3.15;;
8104;SDS011;4095;48.942;9.104;2023-06-14T15:27:52;3.45;;;3.15;;
8104;SDS011;4095;48.942;9.104;2023-06-14T15:30:18;4.88;;;3.13;;